createdAt,value
2019-03-31T00:02:23.896Z,14.90
2019-03-31T00:06:28.638Z,14.57
2019-03-31T00:10:33.438Z,13.93
2019-03-31T00:14:38.165Z,13.43
2019-03-31T00:18:42.919Z,10.00
2019-03-31T00:22:47.735Z,12.20
2019-03-31T00:26:52.991Z,11.00
2019-03-31T00:30:57.746Z,11.40
2019-03-31T00:35:02.591Z,15.73
2019-03-31T00:39:08.992Z,11.53
2019-03-31T00:43:14.043Z,13.43
2019-03-31T00:47:18.789Z,11.63
2019-03-31T00:51:23.731Z,11.30
2019-03-31T00:55:28.491Z,11.80
2019-03-31T00:59:33.211Z,11.67
2019-03-31T01:03:38.048Z,14.07
2019-03-31T01:07:42.801Z,12.50
2019-03-31T01:11:48.691Z,13.63
2019-03-31T01:15:55.460Z,11.77
2019-03-31T01:20:00.384Z,12.17
2019-03-31T01:24:05.221Z,11.73
2019-03-31T01:28:10.291Z,12.00
2019-03-31T01:32:15.112Z,11.77
2019-03-31T01:36:19.908Z,13.03
2019-03-31T01:40:24.769Z,11.77
2019-03-31T01:44:29.481Z,10.93
2019-03-31T01:48:34.398Z,13.87
2019-03-31T01:52:39.169Z,15.10
2019-03-31T01:56:44.977Z,12.40
2019-03-31T02:00:54.156Z,11.03
2019-03-31T02:04:59.083Z,12.53
2019-03-31T02:09:05.584Z,14.03
2019-03-31T02:13:10.626Z,13.73
2019-03-31T02:17:15.527Z,13.30
2019-03-31T02:21:20.618Z,15.73
2019-03-31T02:25:25.745Z,10.40
2019-03-31T02:29:30.473Z,13.30
2019-03-31T02:33:35.365Z,10.57
2019-03-31T02:37:40.151Z,12.63
2019-03-31T02:41:44.889Z,10.63
2019-03-31T02:45:49.592Z,13.10
2019-03-31T02:49:54.427Z,12.90
2019-03-31T02:53:59.386Z,10.97
2019-03-31T02:58:05.859Z,12.03
2019-03-31T03:02:11.233Z,14.43
2019-03-31T03:06:18.392Z,12.93
2019-03-31T03:10:24.495Z,12.97
2019-03-31T03:14:30.795Z,11.83
2019-03-31T03:18:35.537Z,13.33
2019-03-31T03:22:40.447Z,11.63
2019-03-31T03:26:45.314Z,11.53
2019-03-31T03:30:50.231Z,12.57
2019-03-31T03:34:55.124Z,13.83
2019-03-31T03:38:59.822Z,11.67
2019-03-31T03:43:04.573Z,11.43
2019-03-31T03:47:09.352Z,12.47
2019-03-31T03:51:14.216Z,11.37
2019-03-31T03:55:18.965Z,15.43
2019-03-31T03:59:23.711Z,11.23
2019-03-31T04:03:30.929Z,14.43
2019-03-31T04:07:35.541Z,11.53
2019-03-31T04:11:40.265Z,11.47
2019-03-31T04:15:45.140Z,12.17
2019-03-31T04:19:49.854Z,14.63
2019-03-31T04:23:54.768Z,12.00
2019-03-31T04:27:59.557Z,14.27
2019-03-31T04:32:04.425Z,15.00
2019-03-31T04:36:09.603Z,10.97
2019-03-31T04:40:14.364Z,16.03
2019-03-31T04:44:19.102Z,12.93
2019-03-31T04:48:23.881Z,12.87
2019-03-31T04:52:28.617Z,13.07
2019-03-31T04:56:33.337Z,13.47
2019-03-31T05:00:38.309Z,13.03
2019-03-31T05:04:43.060Z,18.20
2019-03-31T05:08:47.868Z,13.03
2019-03-31T05:12:52.618Z,16.80
2019-03-31T05:16:57.422Z,14.77
2019-03-31T05:21:02.189Z,11.03
2019-03-31T05:25:07.283Z,15.60
2019-03-31T05:29:11.989Z,14.57
2019-03-31T05:33:16.807Z,14.27
2019-03-31T05:37:21.816Z,12.43
2019-03-31T05:41:26.588Z,13.73
2019-03-31T05:45:31.395Z,13.87
2019-03-31T05:49:36.178Z,19.53
2019-03-31T05:53:41.416Z,14.03
2019-03-31T05:57:46.162Z,16.20
2019-03-31T06:01:50.926Z,12.97
2019-03-31T06:05:55.676Z,13.20
2019-03-31T06:10:00.402Z,13.80
2019-03-31T06:14:05.617Z,11.70
2019-03-31T06:18:10.439Z,13.07
2019-03-31T06:22:15.263Z,11.53
2019-03-31T06:26:20.070Z,11.87
2019-03-31T06:30:24.877Z,12.90
2019-03-31T06:34:30.593Z,12.63
2019-03-31T06:38:35.342Z,12.57
2019-03-31T06:42:40.114Z,15.13
2019-03-31T06:46:45.131Z,11.37
2019-03-31T06:50:49.856Z,12.43
2019-03-31T06:54:54.809Z,11.53
2019-03-31T06:58:59.901Z,11.17
2019-03-31T07:03:04.996Z,9.57
2019-03-31T07:07:11.742Z,10.50
2019-03-31T07:11:17.366Z,11.97
2019-03-31T07:15:22.953Z,12.90
2019-03-31T07:19:28.829Z,10.93
2019-03-31T07:23:33.698Z,10.03
2019-03-31T07:27:38.894Z,12.13
2019-03-31T07:31:43.656Z,11.90
2019-03-31T07:35:48.849Z,11.53
2019-03-31T07:39:55.704Z,12.07
2019-03-31T07:44:02.126Z,13.67
2019-03-31T07:48:08.227Z,12.30
2019-03-31T07:52:13.155Z,10.20
2019-03-31T07:56:18.708Z,8.27
2019-03-31T08:00:25.298Z,9.23
2019-03-31T08:04:31.519Z,8.97
2019-03-31T08:08:36.582Z,9.40
2019-03-31T08:12:42.653Z,9.30
2019-03-31T08:16:47.350Z,7.80
2019-03-31T08:20:53.623Z,7.93
2019-03-31T08:25:00.151Z,8.93
2019-03-31T08:29:06.557Z,11.00
2019-03-31T08:33:11.362Z,9.37
2019-03-31T08:37:16.558Z,10.20
2019-03-31T08:41:21.321Z,7.50
2019-03-31T08:45:30.318Z,7.80
2019-03-31T08:49:33.449Z,7.50
2019-03-31T08:53:38.637Z,7.43
2019-03-31T08:57:43.305Z,7.30
2019-03-31T09:01:48.509Z,10.30
2019-03-31T09:06:01.827Z,9.90
2019-03-31T09:10:00.354Z,11.20
2019-03-31T09:14:06.482Z,8.30
2019-03-31T09:18:11.349Z,8.73
2019-03-31T09:22:16.124Z,9.67
2019-03-31T09:26:21.102Z,8.57
2019-03-31T09:30:25.826Z,9.33
2019-03-31T09:34:31.421Z,7.27
2019-03-31T09:38:36.724Z,10.33
2019-03-31T09:42:41.488Z,9.23
2019-03-31T09:46:46.248Z,8.60
2019-03-31T09:50:51.394Z,8.90
2019-03-31T09:54:56.293Z,9.73
2019-03-31T09:59:01.411Z,8.93
2019-03-31T10:03:07.874Z,11.90
2019-03-31T10:07:12.660Z,8.00
2019-03-31T10:11:20.844Z,7.60
2019-03-31T10:15:26.074Z,8.53
2019-03-31T10:19:31.204Z,7.17
2019-03-31T10:23:36.010Z,8.90
2019-03-31T10:27:40.757Z,8.00
2019-03-31T10:31:46.256Z,6.27
2019-03-31T10:35:51.009Z,8.30
2019-03-31T10:39:55.743Z,7.30
2019-03-31T10:44:00.499Z,8.00
2019-03-31T10:48:19.229Z,5.97
2019-03-31T10:52:12.023Z,5.67
2019-03-31T10:56:16.932Z,5.80
2019-03-31T11:00:38.023Z,7.63
2019-03-31T11:04:42.758Z,8.73
2019-03-31T11:08:47.911Z,6.20
2019-03-31T11:12:52.964Z,8.13
2019-03-31T11:16:57.720Z,9.23
2019-03-31T11:21:07.728Z,10.07
2019-03-31T11:25:20.783Z,9.33
2019-03-31T11:29:19.245Z,8.13
2019-03-31T11:33:23.996Z,7.53
2019-03-31T11:37:29.097Z,9.50
2019-03-31T11:41:33.873Z,8.85
2019-03-31T11:45:38.727Z,8.03
2019-03-31T11:49:43.679Z,8.48
2019-03-31T11:53:48.468Z,8.50
2019-03-31T11:57:53.283Z,7.87
2019-03-31T12:01:58.131Z,8.10
2019-03-31T12:06:03.063Z,5.28
2019-03-31T12:10:08.762Z,7.12
2019-03-31T12:14:13.602Z,7.37
2019-03-31T12:18:18.776Z,6.40
2019-03-31T12:22:23.706Z,6.83
2019-03-31T12:26:28.653Z,5.05
2019-03-31T12:30:33.449Z,4.72
2019-03-31T12:34:38.262Z,6.45
2019-03-31T12:38:44.360Z,5.20
2019-03-31T12:42:49.231Z,5.62
2019-03-31T12:46:56.106Z,5.05
2019-03-31T12:51:01.497Z,5.97
2019-03-31T12:55:06.877Z,5.37
2019-03-31T12:59:11.715Z,4.97
2019-03-31T13:03:16.677Z,5.33
2019-03-31T13:07:21.585Z,6.60
2019-03-31T13:11:26.298Z,4.53
2019-03-31T13:15:33.162Z,5.65
2019-03-31T13:19:38.027Z,5.15
2019-03-31T13:23:42.782Z,5.12
2019-03-31T13:27:48.933Z,4.55
2019-03-31T13:31:53.686Z,5.23
2019-03-31T13:35:58.462Z,4.85
2019-03-31T13:40:03.207Z,6.08
2019-03-31T13:44:07.945Z,4.80
2019-03-31T13:48:14.604Z,5.08
2019-03-31T13:52:20.361Z,5.45
2019-03-31T13:56:25.219Z,4.08
2019-03-31T14:00:41.191Z,4.45
2019-03-31T14:04:51.728Z,4.90
2019-03-31T14:08:55.064Z,4.62
2019-03-31T14:13:00.272Z,5.08
2019-03-31T14:17:05.072Z,3.12
2019-03-31T14:21:10.155Z,9.05
2019-03-31T14:25:14.940Z,3.42
2019-03-31T14:29:19.756Z,4.35
2019-03-31T14:33:24.985Z,5.37
2019-03-31T14:37:30.058Z,4.42
2019-03-31T14:41:35.241Z,6.45
2019-03-31T14:45:40.521Z,5.30
2019-03-31T14:49:46.298Z,6.28
2019-03-31T14:53:53.414Z,7.65
2019-03-31T14:57:58.653Z,4.30
2019-03-31T15:02:03.466Z,5.50
2019-03-31T15:06:08.439Z,5.80
2019-03-31T15:10:13.231Z,5.72
2019-03-31T15:14:18.266Z,6.72
2019-03-31T15:18:23.471Z,6.20
2019-03-31T15:22:29.566Z,5.35
2019-03-31T15:26:34.329Z,5.30
2019-03-31T15:30:39.348Z,5.72
2019-03-31T15:34:44.184Z,4.40
2019-03-31T15:38:48.989Z,4.85
2019-03-31T15:42:53.806Z,3.93
2019-03-31T15:46:58.770Z,4.40
2019-03-31T15:51:03.471Z,4.17
2019-03-31T15:55:08.801Z,7.10
2019-03-31T15:59:13.578Z,4.92
2019-03-31T16:03:18.580Z,4.33
2019-03-31T16:07:23.486Z,4.25
2019-03-31T16:11:27.703Z,5.45
2019-03-31T16:15:32.218Z,6.58
2019-03-31T16:19:36.903Z,6.95
2019-03-31T16:23:41.105Z,7.58
2019-03-31T16:27:45.493Z,7.65
2019-03-31T16:31:49.775Z,6.30
2019-03-31T16:35:55.176Z,4.70
2019-03-31T16:39:59.400Z,4.85
2019-03-31T16:44:04.016Z,3.83
2019-03-31T16:48:08.761Z,5.35
2019-03-31T16:52:12.954Z,7.20
2019-03-31T16:56:19.199Z,4.12
2019-03-31T17:00:25.751Z,5.45
2019-03-31T17:04:30.404Z,3.90
2019-03-31T17:08:36.029Z,5.58
2019-03-31T17:12:40.245Z,4.15
2019-03-31T17:16:44.457Z,6.55
2019-03-31T17:20:50.934Z,6.97
2019-03-31T17:24:56.724Z,6.80
2019-03-31T17:29:03.100Z,4.67
2019-03-31T17:33:07.281Z,6.10
2019-03-31T17:37:11.864Z,5.07
2019-03-31T17:41:16.124Z,3.83
2019-03-31T17:45:20.354Z,5.67
2019-03-31T17:49:26.567Z,7.47
2019-03-31T17:53:30.817Z,5.80
2019-03-31T17:57:35.161Z,5.60
2019-03-31T18:01:39.329Z,7.67
2019-03-31T18:05:43.539Z,5.70
2019-03-31T18:09:47.790Z,5.50
2019-03-31T18:13:51.990Z,7.10
2019-03-31T18:17:56.292Z,5.67
2019-03-31T18:22:00.511Z,6.03
2019-03-31T18:26:07.535Z,6.53
2019-03-31T18:30:14.168Z,6.60
2019-03-31T18:34:18.466Z,6.23
2019-03-31T18:38:23.444Z,6.90
2019-03-31T18:42:28.265Z,6.07
2019-03-31T18:46:33.663Z,6.30
2019-03-31T18:50:38.631Z,9.87
2019-03-31T18:55:03.694Z,7.50
2019-03-31T18:59:26.876Z,8.20
2019-03-31T19:03:50.131Z,6.67
2019-03-31T19:08:17.017Z,8.00
2019-03-31T19:12:39.578Z,5.60
2019-03-31T19:17:09.568Z,7.13
2019-03-31T19:21:24.280Z,6.80
2019-03-31T19:25:54.054Z,6.53
2019-03-31T19:30:20.818Z,8.07
2019-03-31T19:34:38.114Z,7.20
2019-03-31T19:39:03.685Z,7.50
2019-03-31T19:43:27.183Z,9.03
2019-03-31T19:47:53.242Z,10.47
2019-03-31T19:52:15.500Z,7.63
2019-03-31T19:56:42.115Z,7.10
2019-03-31T20:01:12.719Z,7.03
2019-03-31T20:05:28.076Z,7.33
2019-03-31T20:09:44.556Z,7.97
2019-03-31T20:14:07.914Z,6.27
2019-03-31T20:18:49.812Z,7.80
2019-03-31T20:23:17.033Z,8.80
2019-03-31T20:27:46.631Z,6.37
2019-03-31T20:32:22.522Z,7.47
2019-03-31T20:36:47.219Z,7.50
2019-03-31T20:41:03.612Z,10.20
2019-03-31T20:45:08.268Z,10.57
2019-03-31T20:49:13.612Z,9.73
2019-03-31T20:53:18.243Z,9.20
2019-03-31T20:57:23.908Z,12.97
2019-03-31T21:01:29.336Z,10.87
2019-03-31T21:05:36.108Z,11.33
2019-03-31T21:09:45.137Z,14.90
2019-03-31T21:13:47.208Z,13.00
2019-03-31T21:17:51.975Z,11.30
2019-03-31T21:21:56.199Z,11.13
2019-03-31T21:26:00.929Z,12.20
2019-03-31T21:30:06.034Z,13.57
2019-03-31T21:34:10.284Z,12.77
2019-03-31T21:38:14.740Z,12.30
2019-03-31T21:42:19.074Z,12.67
2019-03-31T21:46:23.259Z,12.43
2019-03-31T21:50:27.519Z,15.03
2019-03-31T21:54:31.797Z,12.43
2019-03-31T21:58:36.036Z,13.90
2019-03-31T22:02:40.316Z,16.10
2019-03-31T22:06:44.671Z,12.97
2019-03-31T22:10:48.896Z,12.00
2019-03-31T22:14:53.122Z,13.43
2019-03-31T22:18:57.324Z,14.97
2019-03-31T22:23:01.623Z,14.40
2019-03-31T22:27:05.866Z,13.53
2019-03-31T22:31:10.140Z,13.37
2019-03-31T22:35:14.471Z,14.17
2019-03-31T22:39:18.651Z,12.40
2019-03-31T22:43:22.894Z,14.23
2019-03-31T22:47:27.183Z,13.53
2019-03-31T22:51:32.568Z,16.67
2019-03-31T22:55:36.801Z,17.13
2019-03-31T22:59:41.587Z,14.53
2019-03-31T23:03:45.796Z,11.77
2019-03-31T23:07:50.071Z,14.77
2019-03-31T23:11:54.483Z,14.53
2019-03-31T23:15:59.024Z,13.60
2019-03-31T23:20:03.338Z,14.50
2019-03-31T23:24:08.679Z,14.33
2019-03-31T23:28:12.993Z,14.03
2019-03-31T23:32:17.764Z,15.40
2019-03-31T23:36:22.888Z,15.67
2019-03-31T23:40:27.516Z,14.43
2019-03-31T23:44:31.823Z,15.70
2019-03-31T23:48:36.226Z,13.00
2019-03-31T23:52:41.329Z,15.43
2019-03-31T23:56:45.567Z,15.23
